sensor_id;sensor_type;location;lat;lon;timestamp;P1;durP1;ratioP1;P2;durP2;ratioP2
26864;SDS011;40618;51.166;10.322;2023-04-24T00:01:46;6.35;;;3.78;;
26864;SDS011;40618;51.166;10.322;2023-04-24T00:04:12;9.38;;;5.60;;
26864;SDS011;40618;51.166;10.322;2023-04-24T00:06:41;7.90;;;4.63;;
26864;SDS011;40618;51.166;10.322;2023-04-24T00:09:07;5.15;;;2.90;;
26864;SDS011;40618;51.166;10.322;2023-04-24T00:11:35;8.27;;;3.80;;
26864;SDS011;40618;51.166;10.322;2023-04-24T00:14:01;4.95;;;2.35;;
26864;SDS011;40618;51.166;10.322;2023-04-24T00:16:27;1.80;;;1.20;;
26864;SDS011;40618;51.166;10.322;2023-04-24T00:18:53;5.13;;;2.85;;
26864;SDS011;40618;51.166;10.322;2023-04-24T00:21:19;4.78;;;2.70;;
26864;SDS011;40618;51.166;10.322;2023-04-24T00:23:46;2.90;;;1.83;;
26864;SDS011;40618;51.166;10.322;2023-04-24T00:26:12;3.30;;;2.00;;
26864;SDS011;40618;51.166;10.322;2023-04-24T00:28:39;1.77;;;1.40;;
26864;SDS011;40618;51.166;10.322;2023-04-24T00:31:05;2.30;;;1.30;;
26864;SDS011;40618;51.166;10.322;2023-04-24T00:33:30;7.07;;;3.40;;
26864;SDS011;40618;51.166;10.322;2023-04-24T00:35:56;3.88;;;1.90;;
26864;SDS011;40618;51.166;10.322;2023-04-24T00:38:21;4.47;;;2.67;;
26864;SDS011;40618;51.166;10.322;2023-04-24T00:40:47;4.38;;;2.50;;
26864;SDS011;40618;51.166;10.322;2023-04-24T00:43:15;2.03;;;1.50;;
26864;SDS011;40618;51.166;10.322;2023-04-24T00:45:41;5.03;;;2.78;;
26864;SDS011;40618;51.166;10.322;2023-04-24T00:48:07;4.20;;;2.15;;
26864;SDS011;40618;51.166;10.322;2023-04-24T00:50:33;4.47;;;2.63;;
26864;SDS011;40618;51.166;10.322;2023-04-24T00:55:29;2.45;;;1.60;;
26864;SDS011;40618;51.166;10.322;2023-04-24T00:57:56;4.18;;;2.38;;
26864;SDS011;40618;51.166;10.322;2023-04-24T01:00:22;1.90;;;1.30;;
26864;SDS011;40618;51.166;10.322;2023-04-24T01:02:48;3.15;;;1.67;;
26864;SDS011;40618;51.166;10.322;2023-04-24T01:05:14;3.47;;;2.08;;
26864;SDS011;40618;51.166;10.322;2023-04-24T01:07:43;2.55;;;2.10;;
26864;SDS011;40618;51.166;10.322;2023-04-24T01:10:12;3.42;;;1.60;;
26864;SDS011;40618;51.166;10.322;2023-04-24T01:12:40;2.13;;;1.35;;
26864;SDS011;40618;51.166;10.322;2023-04-24T01:15:06;1.35;;;1.00;;
26864;SDS011;40618;51.166;10.322;2023-04-24T01:17:33;3.33;;;1.40;;
26864;SDS011;40618;51.166;10.322;2023-04-24T01:19:59;0.90;;;0.80;;
26864;SDS011;40618;51.166;10.322;2023-04-24T01:22:25;0.82;;;0.82;;
26864;SDS011;40618;51.166;10.322;2023-04-24T01:24:52;1.88;;;1.15;;
26864;SDS011;40618;51.166;10.322;2023-04-24T01:27:18;2.10;;;1.05;;
26864;SDS011;40618;51.166;10.322;2023-04-24T01:29:44;2.85;;;1.40;;
26864;SDS011;40618;51.166;10.322;2023-04-24T01:32:10;4.38;;;1.02;;
26864;SDS011;40618;51.166;10.322;2023-04-24T01:34:37;1.92;;;1.35;;
26864;SDS011;40618;51.166;10.322;2023-04-24T01:37:05;2.08;;;1.40;;
26864;SDS011;40618;51.166;10.322;2023-04-24T01:39:31;2.13;;;1.38;;
26864;SDS011;40618;51.166;10.322;2023-04-24T01:41:58;4.22;;;2.05;;
26864;SDS011;40618;51.166;10.322;2023-04-24T01:44:25;1.90;;;1.30;;
26864;SDS011;40618;51.166;10.322;2023-04-24T01:46:52;2.28;;;1.48;;
26864;SDS011;40618;51.166;10.322;2023-04-24T01:49:19;1.27;;;1.08;;
26864;SDS011;40618;51.166;10.322;2023-04-24T01:51:45;1.90;;;1.48;;
26864;SDS011;40618;51.166;10.322;2023-04-24T01:54:11;2.60;;;1.15;;
26864;SDS011;40618;51.166;10.322;2023-04-24T01:56:39;3.13;;;1.75;;
26864;SDS011;40618;51.166;10.322;2023-04-24T01:59:09;3.95;;;2.00;;
26864;SDS011;40618;51.166;10.322;2023-04-24T02:01:36;2.97;;;1.80;;
26864;SDS011;40618;51.166;10.322;2023-04-24T02:04:04;2.20;;;1.48;;
26864;SDS011;40618;51.166;10.322;2023-04-24T02:06:31;1.95;;;1.38;;
26864;SDS011;40618;51.166;10.322;2023-04-24T02:08:58;1.25;;;0.98;;
26864;SDS011;40618;51.166;10.322;2023-04-24T02:11:24;2.17;;;1.40;;
26864;SDS011;40618;51.166;10.322;2023-04-24T02:13:50;2.65;;;1.20;;
26864;SDS011;40618;51.166;10.322;2023-04-24T02:16:16;1.65;;;0.80;;
26864;SDS011;40618;51.166;10.322;2023-04-24T02:18:42;2.42;;;0.95;;
26864;SDS011;40618;51.166;10.322;2023-04-24T02:21:08;2.45;;;1.10;;
26864;SDS011;40618;51.166;10.322;2023-04-24T02:23:34;1.83;;;0.80;;
26864;SDS011;40618;51.166;10.322;2023-04-24T02:25:59;1.05;;;0.80;;
26864;SDS011;40618;51.166;10.322;2023-04-24T02:28:25;1.10;;;0.90;;
26864;SDS011;40618;51.166;10.322;2023-04-24T02:30:51;1.25;;;0.73;;
26864;SDS011;40618;51.166;10.322;2023-04-24T02:33:17;0.73;;;0.60;;
26864;SDS011;40618;51.166;10.322;2023-04-24T02:35:42;1.77;;;0.98;;
26864;SDS011;40618;51.166;10.322;2023-04-24T02:38:08;2.13;;;0.98;;
26864;SDS011;40618;51.166;10.322;2023-04-24T02:40:33;1.92;;;1.00;;
26864;SDS011;40618;51.166;10.322;2023-04-24T02:42:59;1.38;;;0.80;;
26864;SDS011;40618;51.166;10.322;2023-04-24T02:45:25;1.77;;;0.80;;
26864;SDS011;40618;51.166;10.322;2023-04-24T02:47:50;1.52;;;0.80;;
26864;SDS011;40618;51.166;10.322;2023-04-24T02:50:16;1.17;;;0.80;;
26864;SDS011;40618;51.166;10.322;2023-04-24T02:52:41;2.90;;;1.08;;
26864;SDS011;40618;51.166;10.322;2023-04-24T02:55:07;1.17;;;0.77;;
26864;SDS011;40618;51.166;10.322;2023-04-24T02:57:33;1.10;;;0.70;;
26864;SDS011;40618;51.166;10.322;2023-04-24T02:59:59;0.95;;;0.60;;
26864;SDS011;40618;51.166;10.322;2023-04-24T03:02:25;2.17;;;0.80;;
26864;SDS011;40618;51.166;10.322;2023-04-24T03:04:50;1.13;;;0.63;;
26864;SDS011;40618;51.166;10.322;2023-04-24T03:07:16;2.38;;;0.75;;
26864;SDS011;40618;51.166;10.322;2023-04-24T03:09:42;2.35;;;0.93;;
26864;SDS011;40618;51.166;10.322;2023-04-24T03:12:07;1.70;;;1.15;;
26864;SDS011;40618;51.166;10.322;2023-04-24T03:14:33;1.13;;;1.00;;
26864;SDS011;40618;51.166;10.322;2023-04-24T03:16:58;1.08;;;0.90;;
26864;SDS011;40618;51.166;10.322;2023-04-24T03:19:24;4.15;;;1.13;;
26864;SDS011;40618;51.166;10.322;2023-04-24T03:21:50;1.50;;;0.93;;
26864;SDS011;40618;51.166;10.322;2023-04-24T03:24:15;1.23;;;0.70;;
26864;SDS011;40618;51.166;10.322;2023-04-24T03:26:41;1.15;;;0.75;;
26864;SDS011;40618;51.166;10.322;2023-04-24T03:29:06;1.38;;;0.98;;
26864;SDS011;40618;51.166;10.322;2023-04-24T03:31:32;2.08;;;0.88;;
26864;SDS011;40618;51.166;10.322;2023-04-24T03:33:58;2.10;;;0.90;;
26864;SDS011;40618;51.166;10.322;2023-04-24T03:36:23;4.82;;;1.30;;
26864;SDS011;40618;51.166;10.322;2023-04-24T03:38:49;4.03;;;0.90;;
26864;SDS011;40618;51.166;10.322;2023-04-24T03:41:15;3.42;;;0.95;;
26864;SDS011;40618;51.166;10.322;2023-04-24T03:43:40;2.03;;;1.17;;
26864;SDS011;40618;51.166;10.322;2023-04-24T03:46:06;1.25;;;1.08;;
26864;SDS011;40618;51.166;10.322;2023-04-24T03:48:34;0.90;;;0.60;;
26864;SDS011;40618;51.166;10.322;2023-04-24T03:51:00;1.33;;;0.70;;
26864;SDS011;40618;51.166;10.322;2023-04-24T03:53:26;2.75;;;0.85;;
26864;SDS011;40618;51.166;10.322;2023-04-24T03:55:52;1.75;;;0.60;;
26864;SDS011;40618;51.166;10.322;2023-04-24T03:58:18;1.85;;;0.80;;
26864;SDS011;40618;51.166;10.322;2023-04-24T04:00:44;2.25;;;0.60;;
26864;SDS011;40618;51.166;10.322;2023-04-24T04:03:12;0.68;;;0.50;;
26864;SDS011;40618;51.166;10.322;2023-04-24T04:05:39;3.15;;;1.35;;
26864;SDS011;40618;51.166;10.322;2023-04-24T04:08:05;1.88;;;0.73;;
26864;SDS011;40618;51.166;10.322;2023-04-24T04:10:30;1.05;;;0.80;;
26864;SDS011;40618;51.166;10.322;2023-04-24T04:12:56;1.60;;;0.75;;
26864;SDS011;40618;51.166;10.322;2023-04-24T04:15:21;2.97;;;0.60;;
26864;SDS011;40618;51.166;10.322;2023-04-24T04:17:47;0.93;;;0.50;;
26864;SDS011;40618;51.166;10.322;2023-04-24T04:20:13;1.88;;;0.75;;
26864;SDS011;40618;51.166;10.322;2023-04-24T04:22:39;0.95;;;0.60;;
26864;SDS011;40618;51.166;10.322;2023-04-24T04:25:05;2.50;;;0.57;;
26864;SDS011;40618;51.166;10.322;2023-04-24T04:27:31;0.70;;;0.50;;
26864;SDS011;40618;51.166;10.322;2023-04-24T04:30:00;3.25;;;0.80;;
26864;SDS011;40618;51.166;10.322;2023-04-24T04:32:30;0.65;;;0.43;;
26864;SDS011;40618;51.166;10.322;2023-04-24T04:34:59;0.73;;;0.52;;
26864;SDS011;40618;51.166;10.322;2023-04-24T04:37:29;3.17;;;0.67;;
26864;SDS011;40618;51.166;10.322;2023-04-24T04:39:56;1.23;;;0.70;;
26864;SDS011;40618;51.166;10.322;2023-04-24T04:42:23;1.48;;;1.00;;
26864;SDS011;40618;51.166;10.322;2023-04-24T04:44:50;1.27;;;0.90;;
26864;SDS011;40618;51.166;10.322;2023-04-24T04:47:16;2.63;;;1.30;;
26864;SDS011;40618;51.166;10.322;2023-04-24T04:49:43;0.77;;;0.70;;
26864;SDS011;40618;51.166;10.322;2023-04-24T04:52:09;2.38;;;0.77;;
26864;SDS011;40618;51.166;10.322;2023-04-24T04:54:34;2.97;;;1.20;;
26864;SDS011;40618;51.166;10.322;2023-04-24T04:57:00;2.45;;;0.95;;
26864;SDS011;40618;51.166;10.322;2023-04-24T04:59:26;1.95;;;0.60;;
26864;SDS011;40618;51.166;10.322;2023-04-24T05:01:52;0.85;;;0.47;;
26864;SDS011;40618;51.166;10.322;2023-04-24T05:04:18;1.45;;;0.80;;
26864;SDS011;40618;51.166;10.322;2023-04-24T05:06:43;0.80;;;0.60;;
26864;SDS011;40618;51.166;10.322;2023-04-24T05:09:09;0.88;;;0.70;;
26864;SDS011;40618;51.166;10.322;2023-04-24T05:11:35;0.88;;;0.60;;
26864;SDS011;40618;51.166;10.322;2023-04-24T05:14:01;1.48;;;0.55;;
26864;SDS011;40618;51.166;10.322;2023-04-24T05:16:26;0.35;;;0.35;;
26864;SDS011;40618;51.166;10.322;2023-04-24T05:18:52;0.82;;;0.50;;
26864;SDS011;40618;51.166;10.322;2023-04-24T05:21:17;2.55;;;0.68;;
26864;SDS011;40618;51.166;10.322;2023-04-24T05:23:43;0.68;;;0.60;;
26864;SDS011;40618;51.166;10.322;2023-04-24T05:26:08;4.05;;;0.80;;
26864;SDS011;40618;51.166;10.322;2023-04-24T05:28:34;1.70;;;0.70;;
26864;SDS011;40618;51.166;10.322;2023-04-24T05:31:01;0.90;;;0.60;;
26864;SDS011;40618;51.166;10.322;2023-04-24T05:33:28;1.27;;;0.70;;
26864;SDS011;40618;51.166;10.322;2023-04-24T05:35:53;0.50;;;0.38;;
26864;SDS011;40618;51.166;10.322;2023-04-24T05:38:19;1.38;;;0.60;;
26864;SDS011;40618;51.166;10.322;2023-04-24T05:40:45;1.08;;;0.70;;
26864;SDS011;40618;51.166;10.322;2023-04-24T05:43:11;1.20;;;0.77;;
26864;SDS011;40618;51.166;10.322;2023-04-24T05:45:38;4.82;;;1.42;;
26864;SDS011;40618;51.166;10.322;2023-04-24T05:48:04;1.52;;;0.95;;
26864;SDS011;40618;51.166;10.322;2023-04-24T05:50:30;2.28;;;1.15;;
26864;SDS011;40618;51.166;10.322;2023-04-24T05:52:56;2.85;;;1.05;;
26864;SDS011;40618;51.166;10.322;2023-04-24T05:55:26;6.55;;;0.80;;
26864;SDS011;40618;51.166;10.322;2023-04-24T05:57:52;1.15;;;0.60;;
26864;SDS011;40618;51.166;10.322;2023-04-24T06:00:18;0.45;;;0.45;;
26864;SDS011;40618;51.166;10.322;2023-04-24T06:02:44;0.82;;;0.50;;
26864;SDS011;40618;51.166;10.322;2023-04-24T06:05:11;1.13;;;0.50;;
26864;SDS011;40618;51.166;10.322;2023-04-24T06:07:36;2.38;;;0.60;;
26864;SDS011;40618;51.166;10.322;2023-04-24T06:10:02;3.08;;;0.80;;
26864;SDS011;40618;51.166;10.322;2023-04-24T06:12:28;0.60;;;0.50;;
26864;SDS011;40618;51.166;10.322;2023-04-24T06:14:54;1.27;;;0.60;;
26864;SDS011;40618;51.166;10.322;2023-04-24T06:17:20;0.95;;;0.57;;
26864;SDS011;40618;51.166;10.322;2023-04-24T06:19:46;0.55;;;0.55;;
26864;SDS011;40618;51.166;10.322;2023-04-24T06:22:12;0.85;;;0.65;;
26864;SDS011;40618;51.166;10.322;2023-04-24T06:24:39;1.95;;;0.90;;
26864;SDS011;40618;51.166;10.322;2023-04-24T06:27:05;0.80;;;0.80;;
26864;SDS011;40618;51.166;10.322;2023-04-24T06:29:32;0.82;;;0.70;;
26864;SDS011;40618;51.166;10.322;2023-04-24T06:31:58;2.47;;;1.20;;
26864;SDS011;40618;51.166;10.322;2023-04-24T06:34:24;0.55;;;0.55;;
26864;SDS011;40618;51.166;10.322;2023-04-24T06:36:50;0.82;;;0.65;;
26864;SDS011;40618;51.166;10.322;2023-04-24T06:39:15;0.82;;;0.70;;
26864;SDS011;40618;51.166;10.322;2023-04-24T06:41:41;1.40;;;0.50;;
26864;SDS011;40618;51.166;10.322;2023-04-24T06:44:07;1.33;;;0.80;;
26864;SDS011;40618;51.166;10.322;2023-04-24T06:46:32;4.13;;;0.50;;
26864;SDS011;40618;51.166;10.322;2023-04-24T06:48:58;2.80;;;0.90;;
26864;SDS011;40618;51.166;10.322;2023-04-24T06:51:23;0.70;;;0.70;;
26864;SDS011;40618;51.166;10.322;2023-04-24T06:53:53;4.32;;;0.70;;
26864;SDS011;40618;51.166;10.322;2023-04-24T06:56:21;0.65;;;0.65;;
26864;SDS011;40618;51.166;10.322;2023-04-24T06:58:47;0.98;;;0.57;;
26864;SDS011;40618;51.166;10.322;2023-04-24T07:01:13;0.70;;;0.60;;
26864;SDS011;40618;51.166;10.322;2023-04-24T07:03:39;0.60;;;0.60;;
26864;SDS011;40618;51.166;10.322;2023-04-24T07:06:05;0.90;;;0.90;;
26864;SDS011;40618;51.166;10.322;2023-04-24T07:08:31;0.73;;;0.70;;
26864;SDS011;40618;51.166;10.322;2023-04-24T07:10:58;1.10;;;0.82;;
26864;SDS011;40618;51.166;10.322;2023-04-24T07:13:24;0.95;;;0.70;;
26864;SDS011;40618;51.166;10.322;2023-04-24T07:15:49;0.95;;;0.85;;
26864;SDS011;40618;51.166;10.322;2023-04-24T07:18:17;1.38;;;0.70;;
26864;SDS011;40618;51.166;10.322;2023-04-24T07:20:43;0.93;;;0.60;;
26864;SDS011;40618;51.166;10.322;2023-04-24T07:23:09;0.73;;;0.73;;
26864;SDS011;40618;51.166;10.322;2023-04-24T07:25:35;1.52;;;0.82;;
26864;SDS011;40618;51.166;10.322;2023-04-24T07:28:01;0.82;;;0.82;;
26864;SDS011;40618;51.166;10.322;2023-04-24T07:30:26;3.38;;;1.02;;
26864;SDS011;40618;51.166;10.322;2023-04-24T07:32:54;1.02;;;0.80;;
26864;SDS011;40618;51.166;10.322;2023-04-24T07:35:20;1.40;;;0.93;;
26864;SDS011;40618;51.166;10.322;2023-04-24T07:37:46;2.10;;;0.90;;
26864;SDS011;40618;51.166;10.322;2023-04-24T07:40:12;1.10;;;1.00;;
26864;SDS011;40618;51.166;10.322;2023-04-24T07:42:39;2.00;;;1.00;;
26864;SDS011;40618;51.166;10.322;2023-04-24T07:45:05;1.38;;;0.80;;
26864;SDS011;40618;51.166;10.322;2023-04-24T07:47:31;0.88;;;0.80;;
26864;SDS011;40618;51.166;10.322;2023-04-24T07:49:58;1.00;;;0.90;;
26864;SDS011;40618;51.166;10.322;2023-04-24T07:52:24;1.42;;;0.70;;
26864;SDS011;40618;51.166;10.322;2023-04-24T07:54:50;2.30;;;1.10;;
26864;SDS011;40618;51.166;10.322;2023-04-24T07:57:17;1.33;;;0.90;;
26864;SDS011;40618;51.166;10.322;2023-04-24T07:59:43;0.95;;;0.70;;
26864;SDS011;40618;51.166;10.322;2023-04-24T08:02:09;1.55;;;1.15;;
26864;SDS011;40618;51.166;10.322;2023-04-24T08:04:35;0.82;;;0.73;;
26864;SDS011;40618;51.166;10.322;2023-04-24T08:07:00;1.50;;;0.80;;
26864;SDS011;40618;51.166;10.322;2023-04-24T08:09:26;1.00;;;0.90;;
26864;SDS011;40618;51.166;10.322;2023-04-24T08:11:51;0.63;;;0.63;;
26864;SDS011;40618;51.166;10.322;2023-04-24T08:14:18;0.82;;;0.70;;
26864;SDS011;40618;51.166;10.322;2023-04-24T08:16:43;3.17;;;1.08;;
26864;SDS011;40618;51.166;10.322;2023-04-24T08:19:09;1.70;;;1.00;;
26864;SDS011;40618;51.166;10.322;2023-04-24T08:21:35;3.08;;;0.90;;
26864;SDS011;40618;51.166;10.322;2023-04-24T08:24:01;0.80;;;0.80;;
26864;SDS011;40618;51.166;10.322;2023-04-24T08:26:30;0.80;;;0.80;;
26864;SDS011;40618;51.166;10.322;2023-04-24T08:28:56;1.20;;;0.98;;
26864;SDS011;40618;51.166;10.322;2023-04-24T08:31:22;1.02;;;1.00;;
26864;SDS011;40618;51.166;10.322;2023-04-24T08:33:49;1.70;;;1.10;;
26864;SDS011;40618;51.166;10.322;2023-04-24T08:36:15;2.15;;;1.20;;
26864;SDS011;40618;51.166;10.322;2023-04-24T08:38:41;1.35;;;1.05;;
26864;SDS011;40618;51.166;10.322;2023-04-24T08:41:07;0.82;;;0.82;;
26864;SDS011;40618;51.166;10.322;2023-04-24T08:43:34;1.42;;;1.13;;
26864;SDS011;40618;51.166;10.322;2023-04-24T08:46:03;1.23;;;1.13;;
26864;SDS011;40618;51.166;10.322;2023-04-24T08:48:29;2.22;;;1.10;;
26864;SDS011;40618;51.166;10.322;2023-04-24T08:50:56;1.20;;;1.10;;
26864;SDS011;40618;51.166;10.322;2023-04-24T08:53:24;2.03;;;1.10;;
26864;SDS011;40618;51.166;10.322;2023-04-24T08:55:51;1.45;;;1.10;;
26864;SDS011;40618;51.166;10.322;2023-04-24T08:58:20;2.92;;;1.45;;
26864;SDS011;40618;51.166;10.322;2023-04-24T09:00:47;2.28;;;1.75;;
26864;SDS011;40618;51.166;10.322;2023-04-24T09:03:13;1.45;;;1.30;;
26864;SDS011;40618;51.166;10.322;2023-04-24T09:05:44;1.67;;;1.25;;
26864;SDS011;40618;51.166;10.322;2023-04-24T09:08:14;2.55;;;1.35;;
26864;SDS011;40618;51.166;10.322;2023-04-24T09:10:43;2.05;;;1.20;;
26864;SDS011;40618;51.166;10.322;2023-04-24T09:13:09;1.80;;;1.35;;
26864;SDS011;40618;51.166;10.322;2023-04-24T09:15:36;2.13;;;1.10;;
26864;SDS011;40618;51.166;10.322;2023-04-24T09:18:03;1.60;;;1.42;;
26864;SDS011;40618;51.166;10.322;2023-04-24T09:20:30;1.85;;;1.20;;
26864;SDS011;40618;51.166;10.322;2023-04-24T09:22:57;2.60;;;1.40;;
26864;SDS011;40618;51.166;10.322;2023-04-24T09:25:25;4.80;;;1.80;;
26864;SDS011;40618;51.166;10.322;2023-04-24T09:28:00;3.00;;;2.15;;
26864;SDS011;40618;51.166;10.322;2023-04-24T09:30:28;1.70;;;1.60;;
26864;SDS011;40618;51.166;10.322;2023-04-24T09:33:13;2.75;;;1.77;;
26864;SDS011;40618;51.166;10.322;2023-04-24T09:35:41;3.47;;;2.13;;
26864;SDS011;40618;51.166;10.322;2023-04-24T09:38:10;3.00;;;1.83;;
26864;SDS011;40618;51.166;10.322;2023-04-24T09:40:36;4.75;;;2.65;;
26864;SDS011;40618;51.166;10.322;2023-04-24T09:43:01;2.50;;;1.98;;
26864;SDS011;40618;51.166;10.322;2023-04-24T09:45:37;2.55;;;1.88;;
26864;SDS011;40618;51.166;10.322;2023-04-24T09:48:05;3.97;;;2.47;;
26864;SDS011;40618;51.166;10.322;2023-04-24T09:50:35;5.82;;;2.72;;
26864;SDS011;40618;51.166;10.322;2023-04-24T09:53:04;5.30;;;2.80;;
26864;SDS011;40618;51.166;10.322;2023-04-24T09:55:35;2.85;;;2.30;;
26864;SDS011;40618;51.166;10.322;2023-04-24T09:58:09;4.40;;;2.40;;
26864;SDS011;40618;51.166;10.322;2023-04-24T10:00:35;2.78;;;2.05;;
26864;SDS011;40618;51.166;10.322;2023-04-24T10:03:01;2.33;;;1.92;;
26864;SDS011;40618;51.166;10.322;2023-04-24T10:05:30;2.17;;;1.98;;
26864;SDS011;40618;51.166;10.322;2023-04-24T10:08:04;1.98;;;1.75;;
26864;SDS011;40618;51.166;10.322;2023-04-24T10:10:33;3.67;;;2.90;;
26864;SDS011;40618;51.166;10.322;2023-04-24T10:13:03;3.78;;;2.38;;
26864;SDS011;40618;51.166;10.322;2023-04-24T10:15:29;3.78;;;2.55;;
26864;SDS011;40618;51.166;10.322;2023-04-24T10:17:55;4.00;;;2.42;;
26864;SDS011;40618;51.166;10.322;2023-04-24T10:20:24;2.17;;;1.73;;
26864;SDS011;40618;51.166;10.322;2023-04-24T10:22:54;2.10;;;1.70;;
26864;SDS011;40618;51.166;10.322;2023-04-24T10:25:22;3.22;;;1.88;;
26864;SDS011;40618;51.166;10.322;2023-04-24T10:27:56;3.53;;;1.77;;
26864;SDS011;40618;51.166;10.322;2023-04-24T10:30:24;2.72;;;1.60;;
26864;SDS011;40618;51.166;10.322;2023-04-24T10:32:55;2.30;;;1.50;;
26864;SDS011;40618;51.166;10.322;2023-04-24T10:35:21;2.97;;;1.90;;
26864;SDS011;40618;51.166;10.322;2023-04-24T10:40:27;2.70;;;1.50;;
26864;SDS011;40618;51.166;10.322;2023-04-24T10:42:58;1.85;;;1.65;;
26864;SDS011;40618;51.166;10.322;2023-04-24T10:45:24;2.75;;;1.85;;
26864;SDS011;40618;51.166;10.322;2023-04-24T10:48:12;3.60;;;1.98;;
26864;SDS011;40618;51.166;10.322;2023-04-24T10:50:47;3.15;;;1.60;;
26864;SDS011;40618;51.166;10.322;2023-04-24T10:53:21;2.30;;;1.73;;
26864;SDS011;40618;51.166;10.322;2023-04-24T10:56:06;2.92;;;1.60;;
26864;SDS011;40618;51.166;10.322;2023-04-24T10:58:38;2.30;;;1.85;;
26864;SDS011;40618;51.166;10.322;2023-04-24T11:01:23;2.22;;;1.42;;
26864;SDS011;40618;51.166;10.322;2023-04-24T11:06:31;3.55;;;1.67;;
26864;SDS011;40618;51.166;10.322;2023-04-24T11:09:02;2.10;;;1.48;;
26864;SDS011;40618;51.166;10.322;2023-04-24T11:11:33;1.77;;;1.20;;
26864;SDS011;40618;51.166;10.322;2023-04-24T11:14:01;2.80;;;1.55;;
26864;SDS011;40618;51.166;10.322;2023-04-24T11:21:42;1.50;;;1.20;;
26864;SDS011;40618;51.166;10.322;2023-04-24T11:24:27;1.90;;;1.25;;
26864;SDS011;40618;51.166;10.322;2023-04-24T11:26:55;3.13;;;2.15;;
26864;SDS011;40618;51.166;10.322;2023-04-24T11:32:17;3.67;;;1.70;;
26864;SDS011;40618;51.166;10.322;2023-04-24T11:35:15;1.52;;;1.42;;
26864;SDS011;40618;51.166;10.322;2023-04-24T11:37:53;2.20;;;1.55;;
26864;SDS011;40618;51.166;10.322;2023-04-24T11:40:20;2.10;;;1.30;;
26864;SDS011;40618;51.166;10.322;2023-04-24T11:42:50;2.38;;;1.48;;
26864;SDS011;40618;51.166;10.322;2023-04-24T11:45:27;1.75;;;1.40;;
26864;SDS011;40618;51.166;10.322;2023-04-24T11:47:56;1.70;;;1.10;;
26864;SDS011;40618;51.166;10.322;2023-04-24T11:50:24;1.58;;;1.23;;
26864;SDS011;40618;51.166;10.322;2023-04-24T11:52:52;1.35;;;0.80;;
26864;SDS011;40618;51.166;10.322;2023-04-24T11:57:48;0.50;;;0.50;;
26864;SDS011;40618;51.166;10.322;2023-04-24T12:00:19;1.73;;;0.90;;
26864;SDS011;40618;51.166;10.322;2023-04-24T12:02:48;1.38;;;0.80;;
26864;SDS011;40618;51.166;10.322;2023-04-24T12:05:27;2.20;;;0.98;;
26864;SDS011;40618;51.166;10.322;2023-04-24T12:07:56;1.45;;;0.90;;
26864;SDS011;40618;51.166;10.322;2023-04-24T12:10:22;0.60;;;0.60;;
26864;SDS011;40618;51.166;10.322;2023-04-24T12:12:50;2.35;;;1.08;;
26864;SDS011;40618;51.166;10.322;2023-04-24T12:15:18;0.80;;;0.60;;
26864;SDS011;40618;51.166;10.322;2023-04-24T12:17:45;1.48;;;0.50;;
26864;SDS011;40618;51.166;10.322;2023-04-24T12:20:12;0.30;;;0.30;;
26864;SDS011;40618;51.166;10.322;2023-04-24T12:23:12;0.40;;;0.40;;
26864;SDS011;40618;51.166;10.322;2023-04-24T12:25:31;1.23;;;0.60;;
26864;SDS011;40618;51.166;10.322;2023-04-24T12:30:30;0.68;;;0.68;;
26864;SDS011;40618;51.166;10.322;2023-04-24T12:32:58;0.45;;;0.45;;
26864;SDS011;40618;51.166;10.322;2023-04-24T12:35:27;0.65;;;0.52;;
26864;SDS011;40618;51.166;10.322;2023-04-24T12:38:04;1.08;;;0.52;;
26864;SDS011;40618;51.166;10.322;2023-04-24T12:40:41;0.40;;;0.30;;
26864;SDS011;40618;51.166;10.322;2023-04-24T12:43:20;0.52;;;0.50;;
26864;SDS011;40618;51.166;10.322;2023-04-24T12:45:47;1.52;;;0.20;;
26864;SDS011;40618;51.166;10.322;2023-04-24T12:48:13;0.38;;;0.38;;
26864;SDS011;40618;51.166;10.322;2023-04-24T12:50:41;0.65;;;0.45;;
26864;SDS011;40618;51.166;10.322;2023-04-24T12:53:08;0.50;;;0.40;;
26864;SDS011;40618;51.166;10.322;2023-04-24T12:55:35;0.50;;;0.50;;
26864;SDS011;40618;51.166;10.322;2023-04-24T12:58:02;0.40;;;0.30;;
26864;SDS011;40618;51.166;10.322;2023-04-24T13:00:28;1.77;;;0.70;;
26864;SDS011;40618;51.166;10.322;2023-04-24T13:02:54;0.68;;;0.52;;
26864;SDS011;40618;51.166;10.322;2023-04-24T13:05:20;0.35;;;0.28;;
26864;SDS011;40618;51.166;10.322;2023-04-24T13:07:45;0.32;;;0.30;;
26864;SDS011;40618;51.166;10.322;2023-04-24T13:10:11;1.23;;;0.68;;
26864;SDS011;40618;51.166;10.322;2023-04-24T13:12:38;0.47;;;0.40;;
26864;SDS011;40618;51.166;10.322;2023-04-24T13:15:05;0.60;;;0.40;;
26864;SDS011;40618;51.166;10.322;2023-04-24T13:17:32;0.22;;;0.20;;
26864;SDS011;40618;51.166;10.322;2023-04-24T13:19:58;0.30;;;0.30;;
26864;SDS011;40618;51.166;10.322;2023-04-24T13:22:23;1.05;;;0.50;;
26864;SDS011;40618;51.166;10.322;2023-04-24T13:24:49;0.93;;;0.50;;
26864;SDS011;40618;51.166;10.322;2023-04-24T13:27:15;0.30;;;0.30;;
26864;SDS011;40618;51.166;10.322;2023-04-24T13:29:42;1.45;;;0.95;;
26864;SDS011;40618;51.166;10.322;2023-04-24T13:32:08;12.80;;;0.57;;
26864;SDS011;40618;51.166;10.322;2023-04-24T13:34:34;0.45;;;0.40;;
26864;SDS011;40618;51.166;10.322;2023-04-24T13:37:00;0.40;;;0.40;;
26864;SDS011;40618;51.166;10.322;2023-04-24T13:39:27;0.40;;;0.25;;
26864;SDS011;40618;51.166;10.322;2023-04-24T13:41:53;0.50;;;0.50;;
26864;SDS011;40618;51.166;10.322;2023-04-24T13:44:19;0.70;;;0.45;;
26864;SDS011;40618;51.166;10.322;2023-04-24T13:46:46;0.57;;;0.43;;
26864;SDS011;40618;51.166;10.322;2023-04-24T13:49:13;0.10;;;0.10;;
26864;SDS011;40618;51.166;10.322;2023-04-24T13:51:40;0.22;;;0.20;;
26864;SDS011;40618;51.166;10.322;2023-04-24T13:54:07;0.40;;;0.40;;
26864;SDS011;40618;51.166;10.322;2023-04-24T13:56:33;2.05;;;0.68;;
26864;SDS011;40618;51.166;10.322;2023-04-24T13:58:59;0.30;;;0.30;;
26864;SDS011;40618;51.166;10.322;2023-04-24T14:01:25;0.43;;;0.35;;
26864;SDS011;40618;51.166;10.322;2023-04-24T14:03:51;5.47;;;1.52;;
26864;SDS011;40618;51.166;10.322;2023-04-24T14:06:18;1.10;;;0.43;;
26864;SDS011;40618;51.166;10.322;2023-04-24T14:08:48;0.45;;;0.45;;
26864;SDS011;40618;51.166;10.322;2023-04-24T14:11:14;0.30;;;0.28;;
26864;SDS011;40618;51.166;10.322;2023-04-24T14:13:40;0.45;;;0.45;;
26864;SDS011;40618;51.166;10.322;2023-04-24T14:16:07;0.52;;;0.32;;
26864;SDS011;40618;51.166;10.322;2023-04-24T14:18:33;0.30;;;0.30;;
26864;SDS011;40618;51.166;10.322;2023-04-24T14:20:59;0.43;;;0.40;;
26864;SDS011;40618;51.166;10.322;2023-04-24T14:23:26;0.35;;;0.32;;
26864;SDS011;40618;51.166;10.322;2023-04-24T14:25:52;0.28;;;0.25;;
26864;SDS011;40618;51.166;10.322;2023-04-24T14:28:18;0.45;;;0.40;;
26864;SDS011;40618;51.166;10.322;2023-04-24T14:30:45;0.50;;;0.40;;
26864;SDS011;40618;51.166;10.322;2023-04-24T14:33:12;0.30;;;0.30;;
26864;SDS011;40618;51.166;10.322;2023-04-24T14:35:38;0.35;;;0.35;;
26864;SDS011;40618;51.166;10.322;2023-04-24T14:38:06;0.50;;;0.50;;
26864;SDS011;40618;51.166;10.322;2023-04-24T14:40:32;0.80;;;0.50;;
26864;SDS011;40618;51.166;10.322;2023-04-24T14:42:58;1.40;;;0.98;;
26864;SDS011;40618;51.166;10.322;2023-04-24T14:45:24;0.95;;;0.55;;
26864;SDS011;40618;51.166;10.322;2023-04-24T14:47:51;0.63;;;0.63;;
26864;SDS011;40618;51.166;10.322;2023-04-24T14:50:17;1.10;;;0.82;;
26864;SDS011;40618;51.166;10.322;2023-04-24T14:52:43;0.85;;;0.60;;
26864;SDS011;40618;51.166;10.322;2023-04-24T14:55:09;1.60;;;1.00;;